Time;durP1;ratioP1;P1;durP2;ratioP2;P2;SDS_P1;SDS_P2;PMS_P1;PMS_P2;Temp;Humidity;BMP_temperature;BMP_pressure;BME280_temperature;BME280_humidity;BME280_pressure;Samples;Min_cycle;Max_cycle;Signal;HPM_P1;HPM_P2
2022/08/09 00:01:47;;;;;;;8.63;5.38;;;24.20;57.00;;;;;;5015216;28;20105;-14
2022/08/09 00:04:15;;;;;;;7.25;5.13;;;24.20;57.00;;;;;;5015003;28;20026;-13
2022/08/09 00:06:41;;;;;;;7.93;5.32;;;24.20;57.10;;;;;;5015107;28;20083;-16
2022/08/09 00:09:08;;;;;;;9.27;5.28;;;24.20;57.20;;;;;;5014975;28;20108;-15
2022/08/09 00:11:37;;;;;;;9.07;6.38;;;24.10;57.40;;;;;;5014947;28;20034;-14
2022/08/09 00:14:03;;;;;;;7.00;5.47;;;24.10;57.60;;;;;;5014862;28;20160;-15
2022/08/09 00:16:29;;;;;;;6.35;5.10;;;24.00;57.70;;;;;;5014416;28;20148;-16
2022/08/09 00:18:55;;;;;;;7.43;6.00;;;24.00;57.60;;;;;;5014004;28;20029;-14
2022/08/09 00:21:21;;;;;;;8.65;5.57;;;24.00;57.60;;;;;;5014972;28;20022;-13
2022/08/09 00:23:47;;;;;;;7.85;5.32;;;23.90;57.60;;;;;;5014749;28;20033;-13
2022/08/09 00:26:13;;;;;;;6.95;5.40;;;23.90;57.80;;;;;;5014394;28;20478;-14
2022/08/09 00:28:39;;;;;;;8.73;5.93;;;23.80;57.90;;;;;;5014359;28;20117;-14
2022/08/09 00:31:06;;;;;;;7.68;5.57;;;23.80;57.90;;;;;;5014549;28;20026;-14
2022/08/09 00:33:32;;;;;;;10.35;5.97;;;23.70;57.80;;;;;;4996706;28;20486;-14
2022/08/09 00:36:00;;;;;;;7.60;5.50;;;23.70;57.70;;;;;;5014546;28;20445;-14
2022/08/09 00:38:26;;;;;;;8.23;5.50;;;23.70;57.70;;;;;;5013996;28;20072;-13
2022/08/09 00:40:52;;;;;;;7.63;5.38;;;23.60;57.70;;;;;;5014204;28;20034;-14
2022/08/09 00:43:20;;;;;;;7.38;5.55;;;23.60;57.80;;;;;;5014113;28;20029;-14
2022/08/09 00:45:46;;;;;;;6.55;5.22;;;23.50;58.00;;;;;;5014218;28;20512;-14
2022/08/09 00:48:12;;;;;;;7.90;5.32;;;23.50;58.10;;;;;;5014048;28;20038;-14
2022/08/09 00:50:38;;;;;;;8.82;5.22;;;23.40;58.10;;;;;;5014187;28;20040;-14
2022/08/09 00:53:06;;;;;;;7.85;5.07;;;23.40;58.40;;;;;;5013930;28;20481;-14
2022/08/09 00:55:32;;;;;;;6.07;5.13;;;23.30;58.60;;;;;;5014827;28;20049;-14
2022/08/09 00:57:58;;;;;;;6.18;4.88;;;23.20;58.90;;;;;;5014204;28;20033;-13
2022/08/09 01:00:24;;;;;;;8.85;5.50;;;23.20;58.90;;;;;;5013410;28;20045;-14
2022/08/09 01:02:53;;;;;;;8.30;5.50;;;23.00;59.20;;;;;;5013876;28;20053;-14
2022/08/09 01:05:42;;;;;;;9.43;5.93;;;23.00;59.30;;;;;;5013723;28;20050;-13
2022/08/09 01:08:14;;;;;;;9.27;4.93;;;22.90;59.50;;;;;;5013908;28;20018;-12
2022/08/09 01:10:49;;;;;;;6.75;5.50;;;22.90;59.40;;;;;;5013731;28;20125;-15
2022/08/09 01:14:02;;;;;;;7.07;5.60;;;22.90;59.30;;;;;;5013949;28;20468;-13
2022/08/09 01:16:43;;;;;;;6.70;4.88;;;22.90;59.60;;;;;;4934064;29;20027;-15
2022/08/09 01:19:32;;;;;;;8.23;5.10;;;22.80;59.50;;;;;;4934181;29;20595;-13
2022/08/09 01:22:13;;;;;;;6.28;5.10;;;22.70;60.20;;;;;;4925608;29;20028;-16
2022/08/09 01:25:06;;;;;;;5.53;4.50;;;22.70;60.10;;;;;;4934057;29;20451;-14
2022/08/09 01:27:34;;;;;;;6.60;5.05;;;22.60;60.30;;;;;;4934363;29;20032;-16
2022/08/09 01:30:06;;;;;;;9.73;4.82;;;22.50;60.20;;;;;;4933235;29;20028;-15
2022/08/09 01:32:43;;;;;;;6.30;5.03;;;22.50;60.40;;;;;;4933825;29;20040;-15
2022/08/09 01:35:20;;;;;;;6.22;4.90;;;22.50;60.90;;;;;;4934005;29;20031;-15
2022/08/09 01:37:49;;;;;;;7.82;5.63;;;22.40;61.10;;;;;;4934128;29;20377;-14
2022/08/09 01:40:18;;;;;;;8.13;5.50;;;22.40;61.20;;;;;;4933940;29;20028;-14
2022/08/09 01:42:46;;;;;;;7.72;5.70;;;22.30;61.50;;;;;;4933864;29;20036;-15
2022/08/09 01:45:14;;;;;;;7.40;5.32;;;22.20;62.10;;;;;;4934189;29;20499;-14
2022/08/09 01:47:41;;;;;;;8.00;5.47;;;22.20;61.90;;;;;;4933770;29;20442;-14
2022/08/09 01:50:10;;;;;;;8.85;6.32;;;22.20;62.10;;;;;;4933682;29;20111;-13
2022/08/09 01:52:38;;;;;;;8.00;6.20;;;22.20;62.40;;;;;;4965082;28;20405;-16
2022/08/09 01:55:07;;;;;;;6.45;5.47;;;22.20;62.40;;;;;;5013138;28;20482;-15
2022/08/09 01:57:39;;;;;;;9.00;6.05;;;22.10;62.20;;;;;;5013161;28;20088;-15
2022/08/09 02:00:07;;;;;;;7.15;5.30;;;22.20;62.40;;;;;;5012970;28;20104;-14
2022/08/09 02:02:39;;;;;;;7.85;5.65;;;22.10;62.20;;;;;;5013011;28;20026;-14
2022/08/09 02:05:09;;;;;;;8.35;5.60;;;22.10;62.20;;;;;;5013479;28;20030;-16
2022/08/09 02:07:56;;;;;;;8.00;5.85;;;22.10;62.20;;;;;;5013065;28;20030;-14
2022/08/09 02:10:27;;;;;;;7.88;5.40;;;22.10;63.10;;;;;;5013134;28;20056;-14
2022/08/09 02:12:55;;;;;;;7.43;5.07;;;22.00;62.10;;;;;;5013031;28;20034;-14
2022/08/09 02:15:23;;;;;;;9.82;6.10;;;22.10;62.00;;;;;;5013794;28;20030;-14
2022/08/09 02:17:52;;;;;;;9.88;5.57;;;22.10;62.10;;;;;;5013011;28;20014;-14
2022/08/09 02:20:19;;;;;;;7.80;5.95;;;22.20;61.60;;;;;;5013618;28;20026;-14
2022/08/09 02:22:57;;;;;;;9.43;6.03;;;22.20;61.50;;;;;;5013151;28;20030;-14
2022/08/09 02:25:31;;;;;;;6.97;5.43;;;22.20;61.40;;;;;;5012963;28;20033;-14
2022/08/09 02:28:13;;;;;;;7.07;5.60;;;22.30;61.30;;;;;;4996437;28;20022;-14
2022/08/09 02:30:47;;;;;;;6.35;5.00;;;22.20;61.80;;;;;;5012935;28;20026;-14
2022/08/09 02:33:19;;;;;;;9.30;5.85;;;22.20;61.30;;;;;;5012918;28;20561;-14
2022/08/09 02:35:48;;;;;;;7.13;5.13;;;22.20;61.20;;;;;;4996175;28;20373;-15
2022/08/09 02:38:20;;;;;;;8.57;5.10;;;22.30;61.10;;;;;;5012773;28;20119;-14
2022/08/09 02:40:47;;;;;;;7.47;5.20;;;22.20;60.90;;;;;;5014695;28;20478;-14
2022/08/09 02:43:13;;;;;;;6.30;5.07;;;22.20;60.90;;;;;;5016331;28;20077;-15
2022/08/09 02:45:44;;;;;;;5.88;4.70;;;22.20;60.90;;;;;;5016282;28;20030;-15
2022/08/09 02:48:16;;;;;;;8.90;5.25;;;22.20;60.80;;;;;;5017168;28;20022;-15
2022/08/09 02:50:48;;;;;;;7.10;4.85;;;22.10;60.80;;;;;;5016844;28;20462;-14
2022/08/09 02:53:25;;;;;;;5.32;4.57;;;22.10;60.80;;;;;;5016794;28;20033;-14
2022/08/09 02:55:54;;;;;;;5.55;4.63;;;22.10;60.70;;;;;;5016199;28;20033;-14
2022/08/09 02:58:24;;;;;;;7.82;5.25;;;22.00;60.70;;;;;;5015817;28;20033;-14
2022/08/09 03:00:53;;;;;;;5.95;4.80;;;22.10;60.80;;;;;;5016297;28;20029;-14
2022/08/09 03:03:22;;;;;;;8.25;6.13;;;22.00;60.80;;;;;;5016487;28;20556;-16
2022/08/09 03:05:50;;;;;;;6.63;4.72;;;22.00;61.20;;;;;;5016360;28;20489;-14
2022/08/09 03:08:17;;;;;;;5.57;4.63;;;22.00;61.00;;;;;;5015957;28;20034;-14
2022/08/09 03:10:48;;;;;;;5.72;4.70;;;22.00;61.10;;;;;;5016022;28;20057;-16
2022/08/09 03:13:15;;;;;;;5.78;4.70;;;21.90;61.20;;;;;;5015925;28;20026;-15
2022/08/09 03:15:42;;;;;;;6.95;5.03;;;21.90;61.40;;;;;;5015893;28;20017;-15
2022/08/09 03:18:10;;;;;;;8.90;5.30;;;21.80;61.60;;;;;;5015836;28;20508;-16
2022/08/09 03:20:41;;;;;;;6.05;5.03;;;21.80;61.80;;;;;;5015804;28;20045;-15
2022/08/09 03:23:08;;;;;;;7.70;5.20;;;21.70;62.00;;;;;;5015964;28;20034;-14
2022/08/09 03:25:35;;;;;;;6.47;4.68;;;21.60;62.20;;;;;;5015912;28;20052;-14
2022/08/09 03:28:04;;;;;;;6.68;4.75;;;21.50;62.40;;;;;;4998047;28;20079;-14
2022/08/09 03:30:31;;;;;;;6.30;4.70;;;21.50;62.60;;;;;;5015513;28;20018;-14
2022/08/09 03:32:59;;;;;;;7.18;5.25;;;21.40;62.90;;;;;;5015791;28;20029;-15
2022/08/09 03:35:25;;;;;;;7.82;6.05;;;21.40;63.10;;;;;;5015344;28;20022;-15
2022/08/09 03:37:51;;;;;;;8.02;6.18;;;21.40;63.30;;;;;;5015711;28;20026;-15
2022/08/09 03:40:17;;;;;;;8.82;5.35;;;21.30;63.70;;;;;;5015296;28;20432;-15
2022/08/09 03:42:44;;;;;;;7.38;5.40;;;21.20;63.90;;;;;;5015293;28;20101;-14
2022/08/09 03:45:10;;;;;;;8.27;5.35;;;21.10;64.20;;;;;;5015354;28;20030;-14
2022/08/09 03:47:37;;;;;;;7.80;5.85;;;21.10;64.40;;;;;;5015228;28;20041;-14
2022/08/09 03:50:07;;;;;;;6.18;5.18;;;21.10;64.50;;;;;;5015422;28;20018;-14
2022/08/09 03:52:35;;;;;;;8.68;6.22;;;21.00;64.60;;;;;;5014827;28;20041;-15
2022/08/09 03:55:04;;;;;;;6.90;5.38;;;21.00;64.90;;;;;;5015317;28;20418;-15
2022/08/09 03:57:31;;;;;;;9.88;6.30;;;21.00;65.10;;;;;;5015011;28;20030;-15
2022/08/09 03:59:57;;;;;;;9.23;5.90;;;21.00;65.30;;;;;;5014677;28;20461;-15
2022/08/09 04:02:26;;;;;;;8.07;6.25;;;20.90;65.70;;;;;;5014706;28;20117;-14
2022/08/09 04:04:52;;;;;;;7.70;5.78;;;20.90;65.60;;;;;;5014899;28;20545;-14
2022/08/09 04:07:18;;;;;;;7.35;5.97;;;20.90;66.00;;;;;;5014933;28;20018;-15
2022/08/09 04:09:44;;;;;;;8.07;5.97;;;20.90;65.80;;;;;;5015005;28;20072;-15
2022/08/09 04:12:18;;;;;;;8.50;6.30;;;20.90;65.80;;;;;;5015596;28;20076;-15
2022/08/09 04:14:44;;;;;;;;;;;20.90;65.70;;;;;;5015377;28;20509;-15
2022/08/09 04:17:10;;;;;;;7.47;5.65;;;20.90;66.10;;;;;;5014671;28;19997;-14
2022/08/09 04:19:36;;;;;;;9.15;6.15;;;20.80;65.80;;;;;;5015205;28;20017;-15
2022/08/09 04:22:02;;;;;;;7.65;5.80;;;20.80;65.80;;;;;;5014767;28;20112;-14
2022/08/09 04:24:28;;;;;;;7.30;5.75;;;20.80;65.90;;;;;;5014333;28;20034;-15
2022/08/09 04:26:55;;;;;;;7.63;5.60;;;20.80;65.90;;;;;;5015096;28;20093;-15
2022/08/09 04:29:21;;;;;;;7.72;5.60;;;20.90;66.00;;;;;;5014268;28;20509;-14
2022/08/09 04:31:46;;;;;;;8.25;5.78;;;20.80;66.00;;;;;;5014675;28;20037;-14
2022/08/09 04:34:12;;;;;;;9.38;5.47;;;20.90;66.00;;;;;;5014319;28;20485;-15
2022/08/09 04:36:38;;;;;;;6.90;5.47;;;20.80;66.10;;;;;;5014291;28;20087;-15
2022/08/09 04:39:08;;;;;;;9.65;5.60;;;20.90;66.20;;;;;;5014489;28;20076;-14
2022/08/09 04:41:35;;;;;;;8.13;5.30;;;20.90;66.20;;;;;;5014323;28;20132;-14
2022/08/09 04:44:03;;;;;;;7.40;5.55;;;20.90;66.40;;;;;;5014214;28;20026;-14
2022/08/09 04:46:30;;;;;;;7.72;5.95;;;20.90;66.20;;;;;;5014107;28;20034;-14
2022/08/09 04:48:55;;;;;;;10.20;5.32;;;20.90;66.20;;;;;;5014313;28;20052;-14
2022/08/09 04:51:28;;;;;;;8.27;5.20;;;20.90;66.10;;;;;;5014038;28;20482;-15
2022/08/09 04:53:54;;;;;;;8.77;5.47;;;21.00;66.10;;;;;;5014320;28;20109;-17
2022/08/09 04:56:20;;;;;;;8.23;5.45;;;21.00;66.00;;;;;;5013779;28;20038;-16
2022/08/09 04:58:46;;;;;;;7.88;5.20;;;21.10;65.90;;;;;;5013702;28;20065;-15
2022/08/09 05:01:12;;;;;;;7.45;5.13;;;21.10;65.70;;;;;;5014215;28;20026;-15
2022/08/09 05:03:38;;;;;;;9.57;6.00;;;21.20;65.70;;;;;;5013955;28;20030;-15
2022/08/09 05:06:05;;;;;;;9.35;6.00;;;21.30;66.20;;;;;;5013768;28;20388;-14
2022/08/09 05:08:33;;;;;;;9.48;5.90;;;21.40;66.00;;;;;;5013500;28;20401;-14
2022/08/09 05:11:01;;;;;;;11.07;5.75;;;21.40;65.80;;;;;;5014035;28;20061;-15
2022/08/09 05:13:27;;;;;;;8.85;6.10;;;21.50;65.70;;;;;;5013695;28;20030;-14
2022/08/09 05:15:53;;;;;;;14.27;6.90;;;21.60;66.00;;;;;;5013531;28;20029;-15
2022/08/09 05:18:19;;;;;;;8.80;5.90;;;21.70;65.80;;;;;;5013595;28;20037;-15
2022/08/09 05:20:45;;;;;;;9.40;6.15;;;21.90;65.50;;;;;;5013752;28;20030;-15
2022/08/09 05:23:11;;;;;;;9.05;5.95;;;21.90;65.20;;;;;;5013536;28;20116;-15
2022/08/09 05:25:37;;;;;;;8.05;5.72;;;22.10;64.90;;;;;;5014730;28;20079;-14
2022/08/09 05:28:04;;;;;;;7.80;5.00;;;22.20;64.70;;;;;;5014133;28;20022;-14
2022/08/09 05:30:31;;;;;;;10.07;6.53;;;22.30;64.10;;;;;;5013074;28;20030;-14
2022/08/09 05:32:57;;;;;;;9.15;5.70;;;22.40;63.90;;;;;;5014554;28;20034;-16
2022/08/09 05:35:23;;;;;;;8.98;5.60;;;22.40;64.20;;;;;;5013403;28;20432;-15
2022/08/09 05:37:49;;;;;;;7.10;4.93;;;22.50;64.10;;;;;;5013468;28;20420;-15
2022/08/09 05:40:16;;;;;;;10.65;6.10;;;22.60;63.40;;;;;;5013155;28;20018;-16
2022/08/09 05:42:42;;;;;;;7.22;5.10;;;22.80;63.70;;;;;;5013375;28;20037;-14
2022/08/09 05:45:09;;;;;;;9.00;5.80;;;22.90;63.10;;;;;;5013533;28;20026;-15
2022/08/09 05:47:34;;;;;;;9.07;5.75;;;23.00;63.30;;;;;;5013578;28;20034;-14
2022/08/09 05:50:00;;;;;;;8.90;5.72;;;23.20;63.00;;;;;;5013169;28;20370;-16
2022/08/09 05:52:27;;;;;;;12.20;5.82;;;23.30;61.80;;;;;;5013336;28;20041;-14
2022/08/09 05:54:53;;;;;;;11.50;4.88;;;23.40;61.50;;;;;;5013243;28;20022;-14
2022/08/09 05:57:18;;;;;;;7.90;4.50;;;23.60;61.10;;;;;;5013178;28;20036;-14
2022/08/09 05:59:45;;;;;;;7.13;4.80;;;23.70;60.20;;;;;;5013024;28;20146;-15
2022/08/09 06:02:11;;;;;;;6.72;3.70;;;23.90;60.30;;;;;;5013314;28;20489;-14
2022/08/09 06:04:37;;;;;;;5.75;3.97;;;24.00;58.80;;;;;;5013193;28;20058;-15
2022/08/09 06:07:03;;;;;;;5.75;3.90;;;24.10;56.30;;;;;;5013095;28;20485;-14
2022/08/09 06:09:29;;;;;;;4.93;3.65;;;24.30;55.90;;;;;;4995544;28;20061;-14
2022/08/09 06:11:55;;;;;;;5.88;3.75;;;24.40;55.70;;;;;;5013655;28;20030;-15
2022/08/09 06:14:22;;;;;;;5.20;3.55;;;24.40;55.70;;;;;;5013043;28;20034;-15
2022/08/09 06:16:49;;;;;;;6.88;3.50;;;24.50;54.40;;;;;;5016149;28;20034;-15
2022/08/09 06:19:16;;;;;;;6.72;4.18;;;24.60;55.40;;;;;;5016858;28;20033;-14
2022/08/09 06:21:42;;;;;;;5.55;3.63;;;24.70;55.00;;;;;;5016887;28;20390;-15
2022/08/09 06:24:08;;;;;;;7.45;3.70;;;24.90;54.40;;;;;;5017515;28;20025;-15
2022/08/09 06:26:37;;;;;;;7.63;4.30;;;24.90;54.40;;;;;;5016533;28;20108;-15
2022/08/09 06:29:03;;;;;;;8.93;4.30;;;25.00;53.30;;;;;;5016620;28;20026;-15
2022/08/09 06:31:29;;;;;;;5.28;4.07;;;25.10;53.80;;;;;;5016634;28;20030;-14
2022/08/09 06:33:55;;;;;;;8.98;4.25;;;25.20;53.70;;;;;;5016660;28;20041;-14
2022/08/09 06:36:22;;;;;;;6.97;4.20;;;25.30;53.90;;;;;;5016337;28;20058;-15
2022/08/09 06:38:48;;;;;;;6.72;3.88;;;25.40;53.30;;;;;;5016410;28;20026;-13
2022/08/09 06:41:15;;;;;;;15.30;4.50;;;25.50;53.10;;;;;;5016779;28;20022;-14
2022/08/09 06:43:41;;;;;;;6.78;4.22;;;25.70;52.60;;;;;;5016641;28;20036;-14
2022/08/09 06:46:07;;;;;;;5.10;4.30;;;25.70;52.60;;;;;;5016353;28;20018;-13
2022/08/09 06:48:33;;;;;;;6.72;4.30;;;25.90;52.20;;;;;;5016366;28;20037;-13
2022/08/09 06:51:00;;;;;;;5.72;4.10;;;25.90;52.00;;;;;;5016373;28;20034;-14
2022/08/09 06:53:27;;;;;;;4.97;3.80;;;26.00;52.20;;;;;;5016596;28;20058;-14
2022/08/09 06:55:53;;;;;;;6.63;3.67;;;26.10;51.30;;;;;;5016474;28;20429;-13
2022/08/09 06:58:19;;;;;;;10.10;4.18;;;26.20;51.00;;;;;;5015735;28;20115;-14
2022/08/09 07:00:45;;;;;;;8.82;4.13;;;26.30;50.90;;;;;;5016380;28;20038;-14
2022/08/09 07:03:11;;;;;;;6.90;3.67;;;26.40;51.10;;;;;;5016472;28;20079;-14
2022/08/09 07:05:37;;;;;;;5.45;3.65;;;26.50;50.40;;;;;;5016283;28;20117;-13
2022/08/09 07:08:03;;;;;;;6.32;3.90;;;26.60;50.70;;;;;;5016291;28;20029;-14
2022/08/09 07:10:29;;;;;;;5.32;4.07;;;26.80;50.30;;;;;;5015934;28;20026;-14
2022/08/09 07:12:55;;;;;;;4.65;3.67;;;26.90;50.30;;;;;;4998726;28;20038;-13
2022/08/09 07:15:21;;;;;;;5.03;4.03;;;27.00;49.50;;;;;;5015758;28;20504;-14
2022/08/09 07:17:48;;;;;;;6.35;3.83;;;27.20;49.60;;;;;;5015784;28;20034;-15
2022/08/09 07:20:15;;;;;;;6.35;3.47;;;27.30;49.10;;;;;;5015857;28;20026;-16
2022/08/09 07:22:41;;;;;;;5.32;4.07;;;27.40;48.80;;;;;;5015699;28;20029;-14
2022/08/09 07:25:07;;;;;;;3.92;3.53;;;27.50;48.60;;;;;;5015671;28;20482;-14
2022/08/09 07:27:33;;;;;;;5.30;3.63;;;27.70;48.40;;;;;;5015547;28;20018;-16
2022/08/09 07:30:00;;;;;;;4.50;4.10;;;27.90;48.20;;;;;;5015431;28;20052;-14
2022/08/09 07:32:27;;;;;;;6.45;3.70;;;27.90;47.80;;;;;;5015336;28;20076;-14
2022/08/09 07:34:53;;;;;;;7.32;4.43;;;28.10;47.40;;;;;;5015467;28;20040;-14
2022/08/09 07:37:19;;;;;;;4.30;3.78;;;28.30;47.10;;;;;;5015606;28;20034;-14
2022/08/09 07:39:45;;;;;;;4.93;3.80;;;28.40;47.00;;;;;;5015580;28;20053;-14
2022/08/09 07:42:11;;;;;;;7.38;4.30;;;28.60;46.20;;;;;;5015305;28;20440;-14
2022/08/09 07:44:38;;;;;;;5.97;3.90;;;28.70;46.00;;;;;;5015356;28;20105;-14
2022/08/09 07:47:04;;;;;;;6.63;4.10;;;28.80;46.00;;;;;;5015860;28;20030;-14
2022/08/09 07:49:30;;;;;;;5.68;4.07;;;28.90;45.50;;;;;;5015163;28;20018;-14
2022/08/09 07:51:56;;;;;;;4.30;3.90;;;29.20;45.60;;;;;;5015206;28;20033;-14
2022/08/09 07:54:22;;;;;;;6.45;3.85;;;29.40;45.10;;;;;;5014982;28;20068;-14
2022/08/09 07:56:48;;;;;;;6.20;4.35;;;29.60;44.40;;;;;;5015416;28;20064;-13
2022/08/09 07:59:14;;;;;;;5.38;4.20;;;29.70;43.80;;;;;;5015246;28;20050;-13
2022/08/09 08:01:40;;;;;;;7.53;4.60;;;29.80;43.80;;;;;;5014798;28;20112;-15
2022/08/09 08:04:06;;;;;;;11.05;4.70;;;29.90;43.30;;;;;;5015686;28;20026;-15
2022/08/09 08:06:32;;;;;;;6.72;4.47;;;29.90;43.30;;;;;;5014568;28;20071;-16
2022/08/09 08:08:58;;;;;;;7.68;4.50;;;29.90;43.30;;;;;;5015327;28;20508;-15
2022/08/09 08:11:24;;;;;;;7.13;4.70;;;29.80;43.90;;;;;;5015032;28;20386;-14
2022/08/09 08:13:50;;;;;;;6.95;4.70;;;29.70;43.90;;;;;;4997074;28;20036;-14
2022/08/09 08:16:16;;;;;;;5.68;4.63;;;29.80;44.20;;;;;;5014696;28;20030;-14
2022/08/09 08:18:42;;;;;;;4.88;4.20;;;29.90;44.10;;;;;;5014610;28;20052;-15
2022/08/09 08:21:08;;;;;;;6.13;4.50;;;30.10;43.80;;;;;;5099011;22;20142;-18
2022/08/09 08:23:34;;;;;;;7.93;4.53;;;30.40;43.50;;;;;;5034382;28;20029;-17
2022/08/09 08:26:00;;;;;;;6.85;4.20;;;30.70;42.90;;;;;;5034329;28;20032;-18
2022/08/09 08:28:26;;;;;;;5.18;4.18;;;30.90;42.40;;;;;;5034154;28;20018;-17
2022/08/09 08:30:52;;;;;;;6.43;3.92;;;31.30;41.90;;;;;;5034081;28;20040;-18
2022/08/09 08:33:18;;;;;;;9.20;4.38;;;31.70;41.50;;;;;;5034474;28;20025;-19
2022/08/09 08:35:44;;;;;;;5.93;4.20;;;31.90;40.80;;;;;;5034207;28;20032;-16
2022/08/09 08:38:10;;;;;;;7.82;4.38;;;31.90;41.00;;;;;;5033887;28;20028;-17
2022/08/09 08:40:37;;;;;;;6.93;4.43;;;31.90;40.70;;;;;;5033735;28;20066;-17
2022/08/09 08:43:04;;;;;;;6.38;4.30;;;32.10;40.10;;;;;;5033940;28;20030;-17
2022/08/09 08:45:32;;;;;;;6.13;4.43;;;32.30;40.30;;;;;;5033942;28;20057;-17
2022/08/09 08:47:59;;;;;;;6.35;4.00;;;32.40;40.10;;;;;;5032703;28;20021;-17
2022/08/09 08:50:26;;;;;;;4.68;3.80;;;32.40;40.10;;;;;;5033567;28;20044;-18
2022/08/09 08:52:52;;;;;;;5.20;4.20;;;32.60;39.70;;;;;;5033815;28;20548;-17
2022/08/09 08:55:19;;;;;;;7.80;4.45;;;32.70;38.30;;;;;;5033958;28;20123;-17
2022/08/09 08:57:45;;;;;;;5.60;4.50;;;32.60;38.20;;;;;;5033787;28;20040;-16
2022/08/09 09:00:13;;;;;;;5.07;4.22;;;32.70;38.80;;;;;;5033643;28;20431;-18
2022/08/09 09:02:41;;;;;;;5.85;4.28;;;32.70;38.70;;;;;;5034350;28;20021;-17
2022/08/09 09:05:10;;;;;;;9.43;4.13;;;32.90;37.90;;;;;;5033831;28;20057;-17
2022/08/09 09:07:37;;;;;;;5.47;4.25;;;33.20;38.00;;;;;;5033559;28;20435;-17
2022/08/09 09:10:07;;;;;;;4.85;4.25;;;33.40;37.90;;;;;;5033768;28;20116;-17
2022/08/09 09:12:35;;;;;;;6.70;4.40;;;33.40;37.60;;;;;;5033304;28;20033;-17
2022/08/09 09:15:02;;;;;;;7.35;4.35;;;33.40;37.10;;;;;;5034059;28;20022;-16
2022/08/09 09:17:27;;;;;;;5.22;4.28;;;33.30;37.30;;;;;;5033966;28;20029;-17
2022/08/09 09:19:54;;;;;;;6.85;4.32;;;33.40;36.30;;;;;;5032877;28;20107;-18
2022/08/09 09:22:20;;;;;;;9.30;4.47;;;33.40;37.30;;;;;;5033425;28;20087;-17
2022/08/09 09:24:48;;;;;;;6.07;3.90;;;33.60;37.00;;;;;;5033814;28;20025;-17
2022/08/09 09:27:24;;;;;;;5.53;4.20;;;33.80;36.70;;;;;;5033491;28;20021;-17
2022/08/09 09:29:51;;;;;;;4.95;3.70;;;33.70;36.90;;;;;;5033186;28;20029;-18
2022/08/09 09:32:22;;;;;;;4.70;3.67;;;33.60;37.30;;;;;;5033258;28;20048;-18
2022/08/09 09:35:09;;;;;;;4.10;3.70;;;33.90;37.00;;;;;;5033411;28;20448;-17
2022/08/09 09:37:37;;;;;;;5.90;4.00;;;34.10;36.00;;;;;;5033529;28;20060;-17
2022/08/09 09:40:04;;;;;;;5.43;4.03;;;34.30;36.50;;;;;;5033179;28;20045;-17
2022/08/09 09:42:31;;;;;;;7.55;4.07;;;34.50;36.10;;;;;;5033505;28;20411;-17
2022/08/09 09:45:06;;;;;;;4.93;4.00;;;34.40;36.10;;;;;;5033023;28;20551;-17
2022/08/09 09:47:33;;;;;;;5.00;3.80;;;34.60;35.10;;;;;;5033004;28;20083;-17
2022/08/09 09:50:00;;;;;;;5.10;4.40;;;34.60;35.60;;;;;;5032906;28;20542;-19
2022/08/09 09:52:27;;;;;;;5.35;4.10;;;34.70;35.40;;;;;;5037279;28;20025;-18
2022/08/09 09:55:01;;;;;;;5.25;3.92;;;34.60;35.60;;;;;;5037131;28;20053;-18
2022/08/09 09:57:27;;;;;;;7.10;4.03;;;34.40;35.80;;;;;;5037464;28;20100;-19
2022/08/09 09:59:53;;;;;;;5.20;3.90;;;34.20;36.30;;;;;;5036991;28;20021;-17
2022/08/09 10:02:21;;;;;;;4.40;3.70;;;34.20;36.60;;;;;;5037032;28;20064;-16
2022/08/09 10:05:08;;;;;;;6.88;3.42;;;34.40;36.30;;;;;;5037355;28;20017;-19
2022/08/09 10:07:35;;;;;;;4.43;3.45;;;34.70;34.70;;;;;;5037150;28;20029;-17
2022/08/09 10:10:02;;;;;;;4.50;3.70;;;34.80;35.00;;;;;;5036760;28;20362;-18
2022/08/09 10:12:35;;;;;;;6.97;4.15;;;35.00;34.20;;;;;;5036905;28;20179;-18
2022/08/09 10:15:04;;;;;;;6.47;3.30;;;35.10;34.50;;;;;;5036755;28;20033;-17
2022/08/09 10:17:33;;;;;;;4.63;4.05;;;35.40;34.30;;;;;;5035563;28;20083;-18
2022/08/09 10:20:25;;;;;;;4.57;3.50;;;35.60;34.10;;;;;;5036561;28;20072;-18
2022/08/09 10:22:54;;;;;;;4.05;3.47;;;35.80;33.90;;;;;;5029540;28;20031;-17
2022/08/09 10:25:24;;;;;;;4.95;3.78;;;36.00;33.20;;;;;;5036609;28;20021;-17
2022/08/09 10:27:50;;;;;;;5.35;3.55;;;36.30;32.30;;;;;;5036903;28;20026;-17
2022/08/09 10:30:16;;;;;;;5.20;3.70;;;36.60;32.20;;;;;;5036484;28;20033;-17
2022/08/09 10:32:44;;;;;;;3.97;3.30;;;36.90;31.30;;;;;;5036629;28;20029;-17
2022/08/09 10:35:10;;;;;;;5.38;3.38;;;36.90;31.60;;;;;;5036578;28;20510;-17
2022/08/09 10:37:36;;;;;;;3.95;3.15;;;36.90;31.40;;;;;;5036683;28;20036;-17
2022/08/09 10:40:05;;;;;;;7.63;3.38;;;37.00;31.60;;;;;;5036623;28;20484;-15
2022/08/09 10:42:31;;;;;;;4.85;3.35;;;37.20;31.80;;;;;;5036096;28;20036;-17
2022/08/09 10:45:07;;;;;;;4.82;3.40;;;37.50;31.20;;;;;;5036491;28;20100;-17
2022/08/09 10:47:42;;;;;;;4.80;3.20;;;37.90;30.30;;;;;;5036222;28;20026;-16
2022/08/09 10:51:05;;;;;;;3.70;3.40;;;37.90;30.00;;;;;;5036171;28;20108;-16
2022/08/09 10:54:12;;;;;;;4.28;3.30;;;37.90;30.50;;;;;;5035972;28;20041;-17
2022/08/09 10:56:42;;;;;;;3.50;3.20;;;38.10;30.00;;;;;;4976019;28;20027;-17
2022/08/09 10:59:36;;;;;;;5.28;3.13;;;38.40;29.80;;;;;;4975935;28;20553;-17
2022/08/09 11:02:07;;;;;;;3.50;3.20;;;38.30;29.50;;;;;;4974375;28;20038;-17
2022/08/09 11:04:34;;;;;;;3.33;3.13;;;38.40;29.60;;;;;;4974867;28;20125;-17
2022/08/09 11:07:00;;;;;;;5.43;3.38;;;38.10;29.70;;;;;;4975007;28;20034;-16
2022/08/09 11:09:38;;;;;;;3.25;2.90;;;38.40;29.40;;;;;;4974764;28;20047;-18
2022/08/09 11:12:13;;;;;;;3.63;3.33;;;38.10;28.30;;;;;;4975178;28;20031;-18
2022/08/09 11:14:47;;;;;;;4.68;3.33;;;38.00;29.40;;;;;;4975215;28;20035;-17
2022/08/09 11:17:13;;;;;;;4.57;3.13;;;38.30;29.60;;;;;;4974901;28;20031;-17
2022/08/09 11:20:00;;;;;;;4.30;3.25;;;38.50;29.20;;;;;;4974961;28;20055;-16
2022/08/09 11:22:44;;;;;;;4.90;2.95;;;38.30;28.90;;;;;;4974642;28;20023;-16
2022/08/09 11:25:35;;;;;;;3.47;2.97;;;38.60;29.20;;;;;;4974767;28;20030;-18
2022/08/09 11:28:29;;;;;;;3.27;2.93;;;39.00;28.40;;;;;;4974720;28;20022;-18
2022/08/09 11:30:56;;;;;;;3.50;3.20;;;39.00;27.70;;;;;;5013977;28;20477;-18
2022/08/09 11:33:40;;;;;;;3.40;3.10;;;39.30;28.20;;;;;;5035647;28;20084;-18
2022/08/09 11:36:07;;;;;;;3.20;2.90;;;39.40;27.70;;;;;;5035541;28;20026;-17
2022/08/09 11:38:35;;;;;;;3.25;2.92;;;39.60;27.40;;;;;;5035045;28;20083;-16
2022/08/09 11:41:04;;;;;;;4.38;3.05;;;39.70;27.10;;;;;;5035460;28;20026;-17
2022/08/09 11:43:30;;;;;;;2.97;2.78;;;39.90;26.70;;;;;;5035451;28;20022;-16
2022/08/09 11:46:04;;;;;;;3.10;2.80;;;40.20;26.00;;;;;;5035255;28;20017;-16
2022/08/09 11:48:33;;;;;;;3.50;3.20;;;40.60;26.20;;;;;;5034880;28;20034;-17
2022/08/09 11:51:03;;;;;;;3.53;2.97;;;40.70;25.70;;;;;;5035045;28;20021;-16
2022/08/09 11:53:30;;;;;;;4.97;2.88;;;40.40;26.20;;;;;;5035373;28;20044;-17
2022/08/09 11:56:17;;;;;;;4.93;2.75;;;40.50;26.70;;;;;;5035527;28;20033;-16
2022/08/09 11:58:46;;;;;;;3.05;2.70;;;40.50;25.50;;;;;;5034737;28;20040;-16
2022/08/09 12:01:15;;;;;;;4.68;2.97;;;40.40;26.70;;;;;;5035103;28;20025;-17
2022/08/09 12:03:45;;;;;;;3.22;2.75;;;40.70;26.20;;;;;;5034764;28;20029;-18
2022/08/09 12:06:19;;;;;;;4.28;3.00;;;41.00;25.60;;;;;;5034951;28;20025;-17
2022/08/09 12:08:48;;;;;;;2.83;2.63;;;41.40;25.10;;;;;;5034655;28;20107;-17
2022/08/09 12:11:17;;;;;;;3.17;2.83;;;41.60;25.40;;;;;;5034905;28;20060;-18
2022/08/09 12:13:46;;;;;;;3.83;3.05;;;41.90;25.20;;;;;;5033632;28;20109;-16
2022/08/09 12:16:28;;;;;;;3.65;3.20;;;41.90;24.70;;;;;;5034545;28;20021;-16
2022/08/09 12:18:54;;;;;;;3.00;2.75;;;41.80;24.50;;;;;;5034885;28;20025;-16
2022/08/09 12:21:36;;;;;;;4.20;2.67;;;41.50;24.50;;;;;;5033024;28;20051;-16
2022/08/09 12:24:05;;;;;;;2.92;2.72;;;41.60;24.80;;;;;;5034423;28;20037;-16
2022/08/09 12:26:39;;;;;;;2.88;2.67;;;41.60;24.70;;;;;;5034431;28;20044;-16
2022/08/09 12:29:06;;;;;;;2.90;2.60;;;41.10;25.10;;;;;;5034173;28;20030;-17
2022/08/09 12:31:33;;;;;;;3.88;2.60;;;41.30;25.10;;;;;;5034448;28;20034;-16
2022/08/09 12:33:59;;;;;;;3.50;2.58;;;41.60;25.10;;;;;;5034204;28;20556;-16
2022/08/09 12:36:25;;;;;;;2.85;2.63;;;42.00;24.50;;;;;;5033979;28;20105;-15
2022/08/09 12:38:53;;;;;;;3.55;2.90;;;42.40;24.40;;;;;;5034152;28;20017;-16
2022/08/09 12:41:29;;;;;;;4.40;2.80;;;42.20;24.00;;;;;;5034640;28;20484;-17
2022/08/09 12:43:57;;;;;;;2.88;2.40;;;42.20;23.40;;;;;;5034293;28;20100;-18
2022/08/09 12:46:25;;;;;;;2.70;2.50;;;42.20;24.40;;;;;;5034126;28;20473;-18
2022/08/09 12:48:56;;;;;;;3.58;2.63;;;42.50;24.10;;;;;;5034149;28;20049;-17
2022/08/09 12:51:23;;;;;;;7.70;2.80;;;42.60;24.00;;;;;;5033857;28;20072;-17
2022/08/09 12:54:01;;;;;;;3.72;2.90;;;42.60;23.90;;;;;;5032613;28;20030;-18
2022/08/09 12:56:28;;;;;;;3.60;3.00;;;42.30;23.80;;;;;;5033868;28;20107;-17